createdAt,value
2018-12-25T00:01:22.073Z,102213.53
2018-12-25T00:03:52.339Z,102214.41
2018-12-25T00:09:25.452Z,102209.61
2018-12-25T00:12:14.308Z,102212.25
2018-12-25T00:14:44.407Z,102211.37
2018-12-25T00:19:56.894Z,102207.88
2018-12-25T00:22:46.899Z,102217.47
2018-12-25T00:25:38.018Z,102210.93
2018-12-25T00:31:14.523Z,102213.53
2018-12-25T00:33:44.082Z,102219.20
2018-12-25T00:36:13.877Z,102223.13
2018-12-25T00:38:43.712Z,102216.15
2018-12-25T00:41:25.547Z,102221.41
2018-12-25T00:43:55.185Z,102219.19
2018-12-25T00:46:24.991Z,102220.95
2018-12-25T00:48:54.878Z,102225.75
2018-12-25T00:51:43.915Z,102225.73
2018-12-25T00:54:13.732Z,102217.45
2018-12-25T00:56:43.322Z,102209.19
2018-12-25T00:59:13.500Z,102203.09
2018-12-25T01:01:43.408Z,102205.27
2018-12-25T01:04:12.950Z,102211.36
2018-12-25T01:06:43.218Z,102210.92
2018-12-25T01:09:12.706Z,102214.41
2018-12-25T01:11:42.230Z,102219.22
2018-12-25T01:14:11.759Z,102218.77
2018-12-25T01:17:00.776Z,102214.00
2018-12-25T01:19:30.313Z,102227.48
2018-12-25T01:21:59.898Z,102228.78
2018-12-25T01:24:29.415Z,102229.66
2018-12-25T01:26:59.863Z,102233.59
2018-12-25T01:29:29.380Z,102221.81
2018-12-25T01:31:58.939Z,102216.58
2018-12-25T01:34:29.121Z,102224.43
2018-12-25T01:39:58.808Z,102223.13
2018-12-25T01:42:48.673Z,102227.48
2018-12-25T01:45:18.594Z,102222.70
2018-12-25T01:47:48.444Z,102223.13
2018-12-25T01:50:18.660Z,102219.66
2018-12-25T01:52:48.680Z,102223.58
2018-12-25T01:55:18.236Z,102219.66
2018-12-25T01:57:47.924Z,102224.86
2018-12-25T02:00:17.499Z,102211.80
2018-12-25T02:02:48.013Z,102211.38
2018-12-25T02:05:36.876Z,102213.53
2018-12-25T02:08:06.454Z,102206.56
2018-12-25T02:13:43.860Z,102203.96
2018-12-25T02:16:14.024Z,102207.86
2018-12-25T02:18:43.836Z,102201.34
2018-12-25T02:24:26.085Z,102190.45
2018-12-25T02:26:55.599Z,102195.23
2018-12-25T02:29:44.895Z,102198.28
2018-12-25T02:35:04.560Z,102193.93
2018-12-25T02:37:34.367Z,102191.76
2018-12-25T02:40:04.222Z,102191.30
2018-12-25T02:42:33.970Z,102189.13
2018-12-25T02:48:05.542Z,102177.79
2018-12-25T02:53:23.907Z,102181.29
2018-12-25T02:55:53.673Z,102170.84
2018-12-25T02:58:23.835Z,102178.69
2018-12-25T03:00:53.782Z,102171.23
2018-12-25T03:03:23.556Z,102169.95
2018-12-25T03:05:53.055Z,102175.20
2018-12-25T03:11:17.536Z,102163.84
2018-12-25T03:13:47.403Z,102173.90
2018-12-25T03:16:17.167Z,102169.97
2018-12-25T03:18:46.931Z,102173.88
2018-12-25T03:21:16.835Z,102160.80
2018-12-25T03:24:05.622Z,102166.47
2018-12-25T03:26:53.467Z,102175.20
2018-12-25T03:29:23.242Z,102167.34
2018-12-25T03:31:52.740Z,102172.13
2018-12-25T03:37:03.699Z,102161.66
2018-12-25T03:39:33.286Z,102163.41
2018-12-25T03:45:04.852Z,102174.28
2018-12-25T03:47:34.624Z,102173.44
2018-12-25T03:50:27.542Z,102167.73
2018-12-25T03:52:57.114Z,102169.06
2018-12-25T03:55:26.896Z,102165.58
2018-12-25T03:57:56.383Z,102178.23
2018-12-25T04:00:26.012Z,102173.88
2018-12-25T04:02:57.659Z,102175.59
2018-12-25T04:05:46.456Z,102169.52
2018-12-25T04:08:16.056Z,102163.39
2018-12-25T04:10:45.821Z,102175.63
2018-12-25T04:16:04.411Z,102157.30
2018-12-25T04:18:55.856Z,102157.31
2018-12-25T04:21:44.956Z,102156.88
2018-12-25T04:24:15.026Z,102145.09
2018-12-25T04:26:45.306Z,102132.44
2018-12-25T04:29:15.583Z,102146.83
2018-12-25T04:31:45.128Z,102145.12
2018-12-25T04:34:15.055Z,102147.69
2018-12-25T04:36:44.896Z,102150.33
2018-12-25T04:39:33.419Z,102148.99
2018-12-25T04:42:03.463Z,102158.61
2018-12-25T04:44:33.197Z,102155.13
2018-12-25T04:47:22.151Z,102157.29
2018-12-25T04:50:34.715Z,102155.55
2018-12-25T04:53:04.262Z,102158.59
2018-12-25T04:55:33.996Z,102153.81
2018-12-25T05:00:59.695Z,102163.38
2018-12-25T05:03:29.229Z,102167.32
2018-12-25T05:09:10.879Z,102172.11
2018-12-25T05:11:41.472Z,102174.73
2018-12-25T05:14:11.283Z,102174.27
2018-12-25T05:16:40.875Z,102173.84
2018-12-25T05:21:52.781Z,102176.47
2018-12-25T05:27:30.994Z,102172.97
2018-12-25T05:30:01.032Z,102167.74
2018-12-25T05:32:31.379Z,102166.39
2018-12-25T05:35:00.864Z,102155.52
2018-12-25T05:37:30.680Z,102157.27
2018-12-25T05:40:00.603Z,102155.52
2018-12-25T05:42:49.398Z,102160.32
2018-12-25T05:48:19.387Z,102164.69
2018-12-25T05:51:01.067Z,102166.42
2018-12-25T05:53:30.962Z,102165.55
2018-12-25T05:56:01.093Z,102148.56
2018-12-25T05:58:30.831Z,102154.23
2018-12-25T06:01:00.362Z,102159.91
2018-12-25T06:03:49.731Z,102152.47
2018-12-25T06:06:19.625Z,102149.41
2018-12-25T06:09:09.230Z,102148.54
2018-12-25T06:11:57.954Z,102149.41
2018-12-25T06:14:27.953Z,102132.42
2018-12-25T06:16:57.683Z,102142.42
2018-12-25T06:19:27.487Z,102131.52
2018-12-25T06:21:57.613Z,102132.41
2018-12-25T06:24:28.237Z,102131.13
2018-12-25T06:35:13.922Z,102136.34
2018-12-25T06:37:43.946Z,102137.64
2018-12-25T06:40:13.696Z,102140.25
2018-12-25T06:42:43.478Z,102148.98
2018-12-25T06:45:32.606Z,102148.53
2018-12-25T06:48:02.596Z,102138.93
2018-12-25T06:53:27.491Z,102139.77
2018-12-25T06:55:57.099Z,102138.91
2018-12-25T06:58:26.930Z,102142.86
2018-12-25T07:00:56.432Z,102146.34
2018-12-25T07:06:06.961Z,102148.50
2018-12-25T07:08:36.445Z,102146.76
2018-12-25T07:11:25.561Z,102145.84
2018-12-25T07:13:55.129Z,102142.37
2018-12-25T07:16:24.905Z,102140.68
2018-12-25T07:18:54.716Z,102144.58
2018-12-25T07:21:24.264Z,102138.92
2018-12-25T07:23:53.931Z,102129.76
2018-12-25T07:29:18.633Z,102112.33
2018-12-25T07:31:48.378Z,102117.56
2018-12-25T07:34:18.116Z,102124.52
2018-12-25T07:39:42.379Z,102107.52
2018-12-25T07:42:12.206Z,102107.55
2018-12-25T07:44:41.999Z,102111.89
2018-12-25T07:49:52.483Z,102115.39
2018-12-25T07:55:04.083Z,102114.91
2018-12-25T07:57:33.883Z,102107.46
2018-12-25T08:00:03.418Z,102100.52
2018-12-25T08:05:22.650Z,102091.81
2018-12-25T08:08:04.599Z,102095.27
2018-12-25T08:10:34.791Z,102095.27
2018-12-25T08:13:04.288Z,102104.01
2018-12-25T08:15:52.954Z,102109.63
2018-12-25T08:23:52.069Z,102124.50
2018-12-25T08:26:22.506Z,102124.48
2018-12-25T08:28:52.744Z,102121.42
2018-12-25T08:31:22.270Z,102124.92
2018-12-25T08:34:11.660Z,102131.48
2018-12-25T08:36:41.177Z,102131.04
2018-12-25T08:39:11.343Z,102123.62
2018-12-25T08:41:41.545Z,102119.71
2018-12-25T08:44:11.577Z,102121.87
2018-12-25T08:47:02.511Z,102125.37
2018-12-25T08:49:37.814Z,102123.19
2018-12-25T08:52:27.317Z,102118.83
2018-12-25T08:54:56.942Z,102109.21
2018-12-25T08:57:27.026Z,102116.20
2018-12-25T08:59:56.593Z,102123.17
2018-12-25T09:02:26.117Z,102136.23
2018-12-25T09:04:56.623Z,102138.39
2018-12-25T09:07:26.145Z,102141.02
2018-12-25T09:09:56.186Z,102134.05
2018-12-25T09:12:31.350Z,102126.19
2018-12-25T09:15:00.906Z,102137.09
2018-12-25T09:17:30.660Z,102128.73
2018-12-25T09:20:00.971Z,102132.25
2018-12-25T09:22:30.827Z,102139.47
2018-12-25T09:25:00.393Z,102143.91
2018-12-25T09:27:49.505Z,102150.48
2018-12-25T09:30:19.011Z,102150.08
2018-12-25T09:32:48.638Z,102152.66
2018-12-25T09:35:18.568Z,102146.98
2018-12-25T09:38:07.270Z,102151.35
2018-12-25T09:40:36.769Z,102148.69
2018-12-25T09:43:25.655Z,102148.24
2018-12-25T09:45:55.226Z,102150.88
2018-12-25T09:48:25.024Z,102154.38
2018-12-25T09:50:55.156Z,102158.59
2018-12-25T09:53:25.263Z,102160.91
2018-12-25T09:56:18.148Z,102165.72
2018-12-25T09:58:48.505Z,102158.72
2018-12-25T10:01:18.003Z,102152.94
2018-12-25T10:03:48.208Z,102149.05
2018-12-25T10:06:17.742Z,102152.52
2018-12-25T10:08:47.526Z,102155.56
2018-12-25T10:11:17.328Z,102163.36
2018-12-25T10:16:53.606Z,102154.27
2018-12-25T10:19:23.166Z,102160.16
2018-12-25T10:22:12.286Z,102163.84
2018-12-25T10:30:25.476Z,102158.16
2018-12-25T10:33:14.522Z,102156.79
2018-12-25T10:35:44.703Z,102157.23
2018-12-25T10:38:20.317Z,102153.72
2018-12-25T10:40:50.364Z,102158.91
2018-12-25T10:46:01.652Z,102144.19
2018-12-25T10:48:31.411Z,102137.08
2018-12-25T10:51:20.476Z,102134.45
2018-12-25T10:53:50.599Z,102131.42
2018-12-25T10:56:20.161Z,102123.08
2018-12-25T10:58:49.714Z,102124.80
2018-12-25T11:01:23.371Z,102124.38
2018-12-25T11:03:53.254Z,102112.11
2018-12-25T11:06:53.495Z,102102.97
2018-12-25T11:09:42.285Z,102100.77
2018-12-25T11:12:12.225Z,102100.73
2018-12-25T11:14:41.737Z,102091.03
2018-12-25T11:17:11.316Z,102092.34
2018-12-25T11:19:41.197Z,102091.00
2018-12-25T11:22:10.775Z,102090.24
2018-12-25T11:24:40.743Z,102092.23
2018-12-25T11:30:05.259Z,102084.44
2018-12-25T11:32:35.015Z,102078.75
2018-12-25T11:40:48.500Z,102079.85
2018-12-25T11:43:18.135Z,102087.84
2018-12-25T11:45:47.939Z,102094.77
2018-12-25T11:48:18.005Z,102096.20
2018-12-25T11:53:56.071Z,102082.56
2018-12-25T11:56:26.376Z,102080.39
2018-12-25T11:58:56.234Z,102079.86
2018-12-25T12:01:25.858Z,102089.57
2018-12-25T12:03:55.358Z,102095.30
2018-12-25T12:06:25.445Z,102092.27
2018-12-25T12:08:55.042Z,102095.22
2018-12-25T12:11:25.328Z,102098.37
2018-12-25T12:14:14.208Z,102097.92
2018-12-25T12:16:43.764Z,102097.47
2018-12-25T12:19:13.324Z,102099.23
2018-12-25T12:21:42.864Z,102090.02
2018-12-25T12:24:31.912Z,102094.41
2018-12-25T12:27:01.955Z,102093.58
2018-12-25T12:29:31.547Z,102100.95
2018-12-25T12:32:01.300Z,102088.22
2018-12-25T12:40:14.805Z,102089.52
2018-12-25T12:42:44.836Z,102096.50
2018-12-25T12:45:14.594Z,102099.94
2018-12-25T12:47:44.595Z,102101.70
2018-12-25T12:50:14.338Z,102091.65
2018-12-25T12:52:45.700Z,102082.47
2018-12-25T12:55:20.204Z,102083.33
2018-12-25T12:57:49.982Z,102067.55
2018-12-25T13:00:19.834Z,102088.53
2018-12-25T13:08:29.901Z,102086.27
2018-12-25T13:10:59.532Z,102083.33
2018-12-25T13:13:29.284Z,102095.09
2018-12-25T13:15:59.239Z,102082.47
2018-12-25T13:18:29.272Z,102077.18
2018-12-25T13:20:58.830Z,102082.39
2018-12-25T13:23:28.659Z,102089.39
2018-12-25T13:26:10.799Z,102091.97
2018-12-25T13:28:40.673Z,102091.64
2018-12-25T13:34:02.654Z,102103.82
2018-12-25T13:36:32.503Z,102085.50
2018-12-25T13:39:02.521Z,102097.71
2018-12-25T13:41:32.584Z,102095.13
2018-12-25T13:44:02.274Z,102102.55
2018-12-25T13:49:14.086Z,102110.02
2018-12-25T13:51:43.952Z,102111.33
2018-12-25T13:54:14.153Z,102113.50
2018-12-25T13:56:43.697Z,102112.64
2018-12-25T13:59:32.291Z,102110.88
2018-12-25T14:02:01.853Z,102114.84
2018-12-25T14:04:31.703Z,102108.67
2018-12-25T14:07:01.637Z,102106.09
2018-12-25T14:12:40.880Z,102110.06
2018-12-25T14:15:29.648Z,102105.27
2018-12-25T14:17:59.205Z,102117.10
2018-12-25T14:26:12.846Z,102121.03
2018-12-25T14:28:42.644Z,102126.20
2018-12-25T14:31:12.152Z,102121.94
2018-12-25T14:36:36.127Z,102108.03
2018-12-25T14:39:07.550Z,102118.48
2018-12-25T14:41:37.348Z,102118.04
2018-12-25T14:44:08.289Z,102121.52
2018-12-25T14:46:38.043Z,102115.87
2018-12-25T14:51:49.241Z,102113.70
2018-12-25T14:54:38.361Z,102123.36
2018-12-25T14:57:07.844Z,102116.39
2018-12-25T14:59:37.718Z,102113.35
2018-12-25T15:02:07.307Z,102108.08
2018-12-25T15:12:54.872Z,102106.69
2018-12-25T15:15:24.727Z,102106.80
2018-12-25T15:21:19.645Z,102103.70
2018-12-25T15:23:49.207Z,102105.45
2018-12-25T15:26:18.958Z,102109.35
2018-12-25T15:29:33.913Z,102114.66
2018-12-25T15:32:03.452Z,102114.28
2018-12-25T15:34:33.554Z,102124.73
2018-12-25T15:37:03.367Z,102103.77
2018-12-25T15:39:33.279Z,102117.73
2018-12-25T15:42:22.063Z,102111.59
2018-12-25T15:44:52.151Z,102124.73
2018-12-25T15:47:21.757Z,102112.42
2018-12-25T15:52:33.187Z,102108.55
2018-12-25T15:55:03.065Z,102109.84
2018-12-25T15:57:33.352Z,102116.01
2018-12-25T16:00:03.029Z,102104.25
2018-12-25T16:02:33.771Z,102106.77
2018-12-25T16:05:03.835Z,102107.66
2018-12-25T16:07:33.465Z,102104.63
2018-12-25T16:10:03.951Z,102105.94
2018-12-25T16:12:33.808Z,102112.97
2018-12-25T16:15:03.688Z,102108.59
2018-12-25T16:17:33.746Z,102106.87
2018-12-25T16:20:03.844Z,102118.22
2018-12-25T16:22:33.683Z,102114.28
2018-12-25T16:25:03.377Z,102118.63
2018-12-25T16:27:33.148Z,102128.25
2018-12-25T16:30:02.730Z,102127.39
2018-12-25T16:32:33.049Z,102119.02
2018-12-25T16:35:02.918Z,102118.56
2018-12-25T16:37:32.942Z,102133.02
2018-12-25T16:40:02.814Z,102125.56
2018-12-25T16:42:32.315Z,102118.63
2018-12-25T16:45:02.111Z,102120.36
2018-12-25T16:47:31.813Z,102112.91
2018-12-25T16:50:01.646Z,102117.28
2018-12-25T16:52:31.216Z,102113.80
2018-12-25T16:55:01.117Z,102109.42
2018-12-25T16:57:30.732Z,102111.18
2018-12-25T17:00:00.332Z,102109.42
2018-12-25T17:02:30.139Z,102100.21
2018-12-25T17:04:59.911Z,102102.86
2018-12-25T17:07:29.938Z,102101.11
2018-12-25T17:09:59.988Z,102100.17
2018-12-25T17:12:29.809Z,102098.45
2018-12-25T17:14:59.287Z,102092.34
2018-12-25T17:17:29.221Z,102089.76
2018-12-25T17:19:58.746Z,102087.97
2018-12-25T17:22:28.270Z,102087.84
2018-12-25T17:24:59.665Z,102083.99
2018-12-25T17:27:29.562Z,102083.98
2018-12-25T17:29:59.428Z,102091.81
2018-12-25T17:32:28.957Z,102086.09
2018-12-25T17:34:58.724Z,102086.61
2018-12-25T17:37:29.575Z,102095.34
2018-12-25T17:39:59.118Z,102095.30
2018-12-25T17:42:28.666Z,102096.61
2018-12-25T17:44:58.463Z,102093.13
2018-12-25T17:47:29.319Z,102098.37
2018-12-25T17:49:59.040Z,102096.16
2018-12-25T17:52:29.623Z,102092.67
2018-12-25T17:54:59.111Z,102092.68
2018-12-25T17:57:28.904Z,102097.47
2018-12-25T17:59:58.437Z,102097.96
2018-12-25T18:02:27.927Z,102093.99
2018-12-25T18:04:57.879Z,102100.55
2018-12-25T18:07:28.164Z,102096.58
2018-12-25T18:09:57.669Z,102096.95
2018-12-25T18:12:27.303Z,102108.70
2018-12-25T18:14:57.058Z,102099.52
2018-12-25T18:17:26.604Z,102101.70
2018-12-25T18:19:56.634Z,102099.64
2018-12-25T18:22:26.595Z,102093.50
2018-12-25T18:24:56.327Z,102103.00
2018-12-25T18:27:26.147Z,102113.55
2018-12-25T18:29:55.897Z,102103.12
2018-12-25T18:32:25.415Z,102112.27
2018-12-25T18:34:54.886Z,102104.85
2018-12-25T18:37:25.384Z,102102.64
2018-12-25T18:39:56.502Z,102103.55
2018-12-25T18:42:26.649Z,102110.92
2018-12-25T18:44:56.740Z,102107.44
2018-12-25T18:47:27.525Z,102113.09
2018-12-25T18:49:57.067Z,102115.27
2018-12-25T18:52:27.231Z,102113.09
2018-12-25T18:54:56.754Z,102113.95
2018-12-25T18:57:26.323Z,102107.80
2018-12-25T18:59:55.863Z,102116.54
2018-12-25T19:02:25.741Z,102112.19
2018-12-25T19:04:55.467Z,102121.77
2018-12-25T19:07:26.260Z,102119.59
2018-12-25T19:09:55.839Z,102117.39
2018-12-25T19:12:25.569Z,102116.03
2018-12-25T19:15:22.171Z,102119.92
2018-12-25T19:17:53.621Z,102118.53
2018-12-25T19:20:23.611Z,102106.94
2018-12-25T19:22:53.179Z,102121.69
2018-12-25T19:25:23.265Z,102118.66
2018-12-25T19:27:53.029Z,102118.30
2018-12-25T19:30:24.153Z,102109.52
2018-12-25T19:32:53.924Z,102109.52
2018-12-25T19:35:23.862Z,102109.92
2018-12-25T19:37:53.657Z,102110.42
2018-12-25T19:40:24.284Z,102105.63
2018-12-25T19:42:53.905Z,102103.86
2018-12-25T19:45:23.815Z,102105.55
2018-12-25T19:47:53.678Z,102104.23
2018-12-25T19:50:24.436Z,102105.05
2018-12-25T19:52:55.704Z,102115.09
2018-12-25T19:55:25.637Z,102094.59
2018-12-25T19:57:55.461Z,102103.78
2018-12-25T20:00:26.154Z,102106.41
2018-12-25T20:03:08.313Z,102100.29
2018-12-25T20:06:02.954Z,102094.46
2018-12-25T20:09:19.746Z,102097.18
2018-12-25T20:12:30.586Z,102089.35
2018-12-25T20:15:18.055Z,102091.93
2018-12-25T20:18:28.181Z,102093.73
2018-12-25T20:21:19.701Z,102088.03
2018-12-25T20:24:26.760Z,102087.22
2018-12-25T20:27:34.229Z,102082.43
2018-12-25T20:30:43.403Z,102085.45
2018-12-25T20:33:59.821Z,102086.77
2018-12-25T20:36:58.791Z,102079.80
2018-12-25T20:40:04.552Z,102088.98
2018-12-25T20:43:04.145Z,102085.06
2018-12-25T20:46:12.493Z,102080.71
2018-12-25T20:49:15.389Z,102081.16
2018-12-25T20:52:04.098Z,102075.47
2018-12-25T20:55:01.813Z,102079.89
2018-12-25T20:58:08.495Z,102074.20
2018-12-25T21:01:06.711Z,102061.17
2018-12-25T21:04:28.226Z,102068.18
2018-12-25T21:07:39.101Z,102067.64
2018-12-25T21:11:14.645Z,102074.70
2018-12-25T21:14:20.272Z,102066.38
2018-12-25T21:17:32.472Z,102067.31
2018-12-25T21:20:33.945Z,102063.87
2018-12-25T21:23:39.517Z,102066.05
2018-12-25T21:26:44.966Z,102069.45
2018-12-25T21:29:14.968Z,102057.32
2018-12-25T21:31:44.899Z,102077.40
2018-12-25T21:34:14.603Z,102082.23
2018-12-25T21:36:49.595Z,102076.98
2018-12-25T21:39:22.312Z,102078.30
2018-12-25T21:41:52.216Z,102072.56
2018-12-25T21:44:21.772Z,102074.33
2018-12-25T21:46:51.435Z,102077.84
2018-12-25T21:49:21.006Z,102073.05
2018-12-25T21:51:51.075Z,102075.75
2018-12-25T21:54:21.016Z,102071.33
2018-12-25T21:56:50.922Z,102074.85
2018-12-25T21:59:20.730Z,102076.98
2018-12-25T22:01:50.592Z,102073.05
2018-12-25T22:04:20.852Z,102073.02
2018-12-25T22:06:50.676Z,102072.64
2018-12-25T22:09:20.473Z,102076.61
2018-12-25T22:11:49.993Z,102076.58
2018-12-25T22:14:19.551Z,102074.92
2018-12-25T22:16:49.043Z,102079.16
2018-12-25T22:19:18.558Z,102073.62
2018-12-25T22:21:48.118Z,102064.03
2018-12-25T22:24:18.068Z,102072.72
2018-12-25T22:26:47.606Z,102066.66
2018-12-25T22:29:17.134Z,102064.45
2018-12-25T22:31:46.625Z,102063.62
2018-12-25T22:34:16.703Z,102055.75
2018-12-25T22:36:46.502Z,102064.92
2018-12-25T22:39:16.240Z,102063.13
2018-12-25T22:41:45.758Z,102067.92
2018-12-25T22:44:15.817Z,102055.30
2018-12-25T22:46:45.583Z,102061.89
2018-12-25T22:49:15.663Z,102067.14
2018-12-25T22:51:45.913Z,102066.66
2018-12-25T22:54:15.366Z,102064.03
2018-12-25T22:56:45.383Z,102066.20
2018-12-25T22:59:14.904Z,102064.11
2018-12-25T23:01:44.651Z,102054.97
2018-12-25T23:04:14.454Z,102065.79
2018-12-25T23:06:43.967Z,102061.52
2018-12-25T23:09:13.749Z,102061.94
2018-12-25T23:11:44.228Z,102071.55
2018-12-25T23:14:14.073Z,102068.97
2018-12-25T23:16:43.747Z,102064.20
2018-12-25T23:19:13.992Z,102068.55
2018-12-25T23:21:44.327Z,102069.83
2018-12-25T23:24:15.354Z,102076.86
2018-12-25T23:26:45.349Z,102080.31
2018-12-25T23:29:14.862Z,102083.48
2018-12-25T23:31:44.520Z,102078.66
2018-12-25T23:34:14.143Z,102066.83
2018-12-25T23:36:43.809Z,102071.66
2018-12-25T23:39:14.139Z,102063.83
2018-12-25T23:41:43.849Z,102068.59
2018-12-25T23:44:13.933Z,102056.86
2018-12-25T23:46:43.928Z,102051.11
2018-12-25T23:49:14.192Z,102052.93
2018-12-25T23:51:44.641Z,102020.37
2018-12-25T23:54:14.572Z,102046.86
2018-12-25T23:56:44.044Z,102044.21
2018-12-25T23:59:14.312Z,102042.97
